createdAt,value
2019-01-24T00:00:17.675Z,39.23
2019-01-24T00:02:46.315Z,39.63
2019-01-24T00:05:14.889Z,37.00
2019-01-24T00:07:43.503Z,38.50
2019-01-24T00:10:12.131Z,41.63
2019-01-24T00:12:40.716Z,41.67
2019-01-24T00:15:09.413Z,40.70
2019-01-24T00:17:38.014Z,40.67
2019-01-24T00:20:06.628Z,39.40
2019-01-24T00:22:35.232Z,36.83
2019-01-24T00:25:04.179Z,38.90
2019-01-24T00:27:32.779Z,36.77
2019-01-24T00:30:01.387Z,40.20
2019-01-24T00:32:29.991Z,38.87
2019-01-24T00:34:58.600Z,37.73
2019-01-24T00:37:27.213Z,39.17
2019-01-24T00:39:55.819Z,35.93
2019-01-24T00:42:24.420Z,38.57
2019-01-24T00:44:53.032Z,35.47
2019-01-24T00:47:21.680Z,36.43
2019-01-24T00:49:50.542Z,37.33
2019-01-24T00:52:19.153Z,35.70
2019-01-24T00:54:47.757Z,38.17
2019-01-24T00:57:16.378Z,38.60
2019-01-24T00:59:44.980Z,36.83
2019-01-24T01:02:13.596Z,38.60
2019-01-24T01:04:42.238Z,36.20
2019-01-24T01:07:10.840Z,36.93
2019-01-24T01:09:39.430Z,40.77
2019-01-24T01:12:08.172Z,37.97
2019-01-24T01:14:36.808Z,37.33
2019-01-24T01:17:05.399Z,44.37
2019-01-24T01:19:34.010Z,40.73
2019-01-24T01:22:05.384Z,38.33
2019-01-24T01:24:33.989Z,43.33
2019-01-24T01:27:02.640Z,40.67
2019-01-24T01:29:31.252Z,43.07
2019-01-24T01:31:59.853Z,43.20
2019-01-24T01:34:28.462Z,41.83
2019-01-24T01:36:57.120Z,40.90
2019-01-24T01:39:25.723Z,43.63
2019-01-24T01:41:54.366Z,43.40
2019-01-24T01:44:23.483Z,43.93
2019-01-24T01:46:52.218Z,45.23
2019-01-24T01:49:20.851Z,47.00
2019-01-24T01:51:49.451Z,40.57
2019-01-24T01:54:18.046Z,43.13
2019-01-24T01:56:46.651Z,44.77
2019-01-24T01:59:15.241Z,42.50
2019-01-24T02:01:43.845Z,43.67
2019-01-24T02:04:12.473Z,40.13
2019-01-24T02:06:41.179Z,42.67
2019-01-24T02:09:09.804Z,41.23
2019-01-24T02:11:38.423Z,40.97
2019-01-24T02:14:07.223Z,43.67
2019-01-24T02:16:35.803Z,43.10
2019-01-24T02:19:04.615Z,39.07
2019-01-24T02:21:33.704Z,42.70
2019-01-24T02:24:02.293Z,40.47
2019-01-24T02:26:31.076Z,41.60
2019-01-24T02:28:59.675Z,40.00
2019-01-24T02:31:28.293Z,38.97
2019-01-24T02:33:56.907Z,43.43
2019-01-24T02:36:25.509Z,39.27
2019-01-24T02:38:54.091Z,40.73
2019-01-24T02:41:22.699Z,47.37
2019-01-24T02:43:51.309Z,42.37
2019-01-24T02:46:19.907Z,42.57
2019-01-24T02:48:48.571Z,43.93
2019-01-24T02:51:17.159Z,43.60
2019-01-24T02:53:45.809Z,40.63
2019-01-24T02:56:14.419Z,44.33
2019-01-24T02:58:43.259Z,42.30
2019-01-24T03:01:11.863Z,43.07
2019-01-24T03:03:40.622Z,40.33
2019-01-24T03:06:09.238Z,45.30
2019-01-24T03:08:38.104Z,38.43
2019-01-24T03:11:06.710Z,40.50
2019-01-24T03:13:35.309Z,42.60
2019-01-24T03:16:03.917Z,38.47
2019-01-24T03:18:32.532Z,40.60
2019-01-24T03:21:01.128Z,44.27
2019-01-24T03:23:29.732Z,41.07
2019-01-24T03:25:58.363Z,39.07
2019-01-24T03:28:26.950Z,41.97
2019-01-24T03:30:55.531Z,42.40
2019-01-24T03:33:24.176Z,43.17
2019-01-24T03:35:52.761Z,43.83
2019-01-24T03:38:21.352Z,42.70
2019-01-24T03:40:50.340Z,42.63
2019-01-24T03:43:18.940Z,38.93
2019-01-24T03:45:47.518Z,43.07
2019-01-24T03:48:16.167Z,38.57
2019-01-24T03:50:44.771Z,41.57
2019-01-24T03:53:13.375Z,44.13
2019-01-24T03:55:42.051Z,41.33
2019-01-24T03:58:10.752Z,40.93
2019-01-24T04:00:39.351Z,44.30
2019-01-24T04:03:08.241Z,42.97
2019-01-24T04:05:36.850Z,41.77
2019-01-24T04:08:05.442Z,44.80
2019-01-24T04:10:34.082Z,41.27
2019-01-24T04:13:02.670Z,43.23
2019-01-24T04:15:31.464Z,42.77
2019-01-24T04:18:00.090Z,43.87
2019-01-24T04:20:28.696Z,44.23
2019-01-24T04:23:00.345Z,45.23
2019-01-24T04:25:28.975Z,46.33
2019-01-24T04:27:57.583Z,47.30
2019-01-24T04:30:26.182Z,48.13
2019-01-24T04:32:54.771Z,46.50
2019-01-24T04:35:23.372Z,42.93
2019-01-24T04:37:51.967Z,45.90
2019-01-24T04:40:20.743Z,45.10
2019-01-24T04:42:49.443Z,47.20
2019-01-24T04:45:18.447Z,46.87
2019-01-24T04:47:47.552Z,52.17
2019-01-24T04:50:16.601Z,49.90
2019-01-24T04:52:45.273Z,46.70
2019-01-24T04:55:14.935Z,48.17
2019-01-24T04:57:43.533Z,46.50
2019-01-24T05:00:16.435Z,46.80
2019-01-24T05:02:45.072Z,45.50
2019-01-24T05:05:13.750Z,48.63
2019-01-24T05:07:42.347Z,45.57
2019-01-24T05:10:11.018Z,50.30
2019-01-24T05:12:39.625Z,50.27
2019-01-24T05:15:08.306Z,46.13
2019-01-24T05:17:36.918Z,50.57
2019-01-24T05:20:06.064Z,50.63
2019-01-24T05:22:34.667Z,53.27
2019-01-24T05:25:03.291Z,52.90
2019-01-24T05:27:31.891Z,50.67
2019-01-24T05:30:00.468Z,51.63
2019-01-24T05:32:29.074Z,53.03
2019-01-24T05:34:57.925Z,55.83
2019-01-24T05:37:26.534Z,55.07
2019-01-24T05:39:55.162Z,53.80
2019-01-24T05:42:23.767Z,58.20
2019-01-24T05:44:52.368Z,56.37
2019-01-24T05:47:20.969Z,53.17
2019-01-24T05:49:49.593Z,57.37
2019-01-24T05:52:19.764Z,56.50
2019-01-24T05:54:48.578Z,55.80
2019-01-24T05:57:17.180Z,54.67
2019-01-24T05:59:46.016Z,59.17
2019-01-24T06:02:14.614Z,54.47
2019-01-24T06:04:43.209Z,50.37
2019-01-24T06:07:11.948Z,49.77
2019-01-24T06:09:40.532Z,51.03
2019-01-24T06:12:09.309Z,52.43
2019-01-24T06:14:38.329Z,49.57
2019-01-24T06:17:08.768Z,51.33
2019-01-24T06:19:37.365Z,52.27
2019-01-24T06:22:06.097Z,54.80
2019-01-24T06:24:34.737Z,50.23
2019-01-24T06:27:03.328Z,49.07
2019-01-24T06:29:31.938Z,47.47
2019-01-24T06:32:00.533Z,52.80
2019-01-24T06:34:29.119Z,45.83
2019-01-24T06:36:57.729Z,48.90
2019-01-24T06:39:26.314Z,50.67
2019-01-24T06:41:54.908Z,47.97
2019-01-24T06:44:23.508Z,49.50
2019-01-24T06:46:52.096Z,48.73
2019-01-24T06:49:20.686Z,48.20
2019-01-24T06:51:49.322Z,49.97
2019-01-24T06:54:17.914Z,51.43
2019-01-24T06:56:46.510Z,50.10
2019-01-24T06:59:15.140Z,51.13
2019-01-24T07:01:43.881Z,52.70
2019-01-24T07:04:12.486Z,56.23
2019-01-24T07:06:41.105Z,52.60
2019-01-24T07:09:09.696Z,56.17
2019-01-24T07:11:38.306Z,52.17
2019-01-24T07:14:06.934Z,59.53
2019-01-24T07:16:35.532Z,58.47
2019-01-24T07:19:04.135Z,57.80
2019-01-24T07:21:32.742Z,58.27
2019-01-24T07:24:01.326Z,55.43
2019-01-24T07:26:29.921Z,56.20
2019-01-24T07:28:58.519Z,57.60
2019-01-24T07:31:27.108Z,60.90
2019-01-24T07:33:55.690Z,55.23
2019-01-24T07:36:24.340Z,54.20
2019-01-24T07:38:52.936Z,55.00
2019-01-24T07:41:21.528Z,57.07
2019-01-24T07:43:50.140Z,57.07
2019-01-24T07:46:18.732Z,49.13
2019-01-24T07:48:47.330Z,49.67
2019-01-24T07:51:15.939Z,59.03
2019-01-24T07:53:44.554Z,53.10
2019-01-24T07:56:13.146Z,53.73
2019-01-24T07:58:41.771Z,53.53
2019-01-24T08:01:10.468Z,56.43
2019-01-24T08:03:39.252Z,53.13
2019-01-24T08:06:09.251Z,51.80
2019-01-24T08:08:38.062Z,52.53
2019-01-24T08:11:06.640Z,55.03
2019-01-24T08:13:35.242Z,52.60
2019-01-24T08:16:03.931Z,52.60
2019-01-24T08:18:32.528Z,52.10
2019-01-24T08:21:01.134Z,53.67
2019-01-24T08:23:29.798Z,51.30
2019-01-24T08:25:58.391Z,52.63
2019-01-24T08:28:27.019Z,52.10
2019-01-24T08:30:55.599Z,50.50
2019-01-24T08:33:24.184Z,54.67
2019-01-24T08:35:52.811Z,48.93
2019-01-24T08:38:21.400Z,50.43
2019-01-24T08:40:49.999Z,49.13
2019-01-24T08:43:18.611Z,51.00
2019-01-24T08:45:47.203Z,48.63
2019-01-24T08:48:15.887Z,48.17
2019-01-24T08:50:44.519Z,50.10
2019-01-24T08:53:13.117Z,51.10
2019-01-24T08:55:42.417Z,44.17
2019-01-24T08:58:11.151Z,49.13
2019-01-24T09:00:39.768Z,43.83
2019-01-24T09:03:08.379Z,47.10
2019-01-24T09:05:37.091Z,48.13
2019-01-24T09:08:05.891Z,44.40
2019-01-24T09:10:38.483Z,40.77
2019-01-24T09:13:07.820Z,38.63
2019-01-24T09:15:36.835Z,40.97
2019-01-24T09:18:05.877Z,32.70
2019-01-24T09:20:34.492Z,33.07
2019-01-24T09:23:03.127Z,31.37
2019-01-24T09:25:31.751Z,27.53
2019-01-24T09:28:00.740Z,29.40
2019-01-24T09:30:29.538Z,27.77
2019-01-24T09:32:58.181Z,24.13
2019-01-24T09:35:26.785Z,29.60
2019-01-24T09:37:55.377Z,25.17
2019-01-24T09:40:24.012Z,25.70
2019-01-24T09:42:52.620Z,22.40
2019-01-24T09:45:22.118Z,26.87
2019-01-24T09:47:50.949Z,24.90
2019-01-24T09:50:20.443Z,20.83
2019-01-24T09:52:49.048Z,22.20
2019-01-24T09:55:17.756Z,24.10
2019-01-24T09:57:46.346Z,23.83
2019-01-24T10:00:16.321Z,21.13
2019-01-24T10:02:44.931Z,22.67
2019-01-24T10:05:13.652Z,26.43
2019-01-24T10:07:42.283Z,23.20
2019-01-24T10:10:13.771Z,21.50
2019-01-24T10:12:42.566Z,23.20
2019-01-24T10:15:11.632Z,24.77
2019-01-24T10:17:40.246Z,22.10
2019-01-24T10:20:09.892Z,22.83
2019-01-24T10:22:38.481Z,20.77
2019-01-24T10:25:08.848Z,22.63
2019-01-24T10:27:37.442Z,22.47
2019-01-24T10:30:06.276Z,22.77
2019-01-24T10:32:35.012Z,22.93
2019-01-24T10:35:03.716Z,25.13
2019-01-24T10:37:32.844Z,24.70
2019-01-24T10:40:01.489Z,24.83
2019-01-24T10:42:30.078Z,22.57
2019-01-24T10:44:58.668Z,23.93
2019-01-24T10:47:27.285Z,22.87
2019-01-24T10:49:55.877Z,21.87
2019-01-24T10:52:24.480Z,19.90
2019-01-24T10:54:53.101Z,20.93
2019-01-24T10:57:21.744Z,20.90
2019-01-24T10:59:50.346Z,18.87
2019-01-24T11:02:18.988Z,19.80
2019-01-24T11:04:47.586Z,18.67
2019-01-24T11:07:16.164Z,22.07
2019-01-24T11:09:44.836Z,19.93
2019-01-24T11:12:13.442Z,22.87
2019-01-24T11:14:42.040Z,20.37
2019-01-24T11:17:10.703Z,20.57
2019-01-24T11:19:39.306Z,20.73
2019-01-24T11:22:07.902Z,21.03
2019-01-24T11:24:36.551Z,20.30
2019-01-24T11:27:05.128Z,20.03
2019-01-24T11:29:33.726Z,22.00
2019-01-24T11:32:02.333Z,22.90
2019-01-24T11:34:30.936Z,20.50
2019-01-24T11:36:59.595Z,20.63
2019-01-24T11:39:28.229Z,22.93
2019-01-24T11:41:56.815Z,22.13
2019-01-24T11:44:25.429Z,22.57
2019-01-24T11:46:54.085Z,22.10
2019-01-24T11:49:22.760Z,23.40
2019-01-24T11:51:51.380Z,23.13
2019-01-24T11:54:19.991Z,24.17
2019-01-24T11:56:48.605Z,23.03
2019-01-24T11:59:17.281Z,24.30
2019-01-24T12:01:45.935Z,28.03
2019-01-24T12:04:14.523Z,26.70
2019-01-24T12:06:43.123Z,24.50
2019-01-24T12:09:11.757Z,24.40
2019-01-24T12:11:40.399Z,25.07
2019-01-24T12:14:09.003Z,20.67
2019-01-24T12:16:37.613Z,23.77
2019-01-24T12:19:06.227Z,20.53
2019-01-24T12:21:34.847Z,23.37
2019-01-24T12:24:03.511Z,21.63
2019-01-24T12:26:32.166Z,23.13
2019-01-24T12:29:00.768Z,22.03
2019-01-24T12:31:29.475Z,23.17
2019-01-24T12:33:58.079Z,22.10
2019-01-24T12:36:26.669Z,19.43
2019-01-24T12:38:55.308Z,19.37
2019-01-24T12:41:23.922Z,18.97
2019-01-24T12:43:52.543Z,20.77
2019-01-24T12:46:21.240Z,19.27
2019-01-24T12:48:49.839Z,20.13
2019-01-24T12:51:18.452Z,18.87
2019-01-24T12:53:47.079Z,17.20
2019-01-24T12:56:15.696Z,18.20
2019-01-24T12:58:44.396Z,18.70
2019-01-24T13:01:13.003Z,15.27
2019-01-24T13:03:41.593Z,17.20
2019-01-24T13:06:10.209Z,18.63
2019-01-24T13:08:38.837Z,18.50
2019-01-24T13:11:07.572Z,16.73
2019-01-24T13:13:36.178Z,16.73
2019-01-24T13:16:04.801Z,15.00
2019-01-24T13:18:33.393Z,17.47
2019-01-24T13:21:02.006Z,20.30
2019-01-24T13:23:30.625Z,16.33
2019-01-24T13:25:59.218Z,16.47
2019-01-24T13:28:27.821Z,16.77
2019-01-24T13:30:56.446Z,17.93
2019-01-24T13:33:25.069Z,17.97
2019-01-24T13:35:53.662Z,18.90
2019-01-24T13:38:22.293Z,19.47
2019-01-24T13:40:50.893Z,16.60
2019-01-24T13:43:19.492Z,17.97
2019-01-24T13:45:48.108Z,14.83
2019-01-24T13:48:16.713Z,20.50
2019-01-24T13:50:45.304Z,20.40
2019-01-24T13:53:13.962Z,19.33
2019-01-24T13:55:42.575Z,18.67
2019-01-24T13:58:11.156Z,20.57
2019-01-24T14:00:40.748Z,21.63
2019-01-24T14:03:17.366Z,18.60
2019-01-24T14:05:45.978Z,20.57
2019-01-24T14:08:14.561Z,21.07
2019-01-24T14:10:43.148Z,20.90
2019-01-24T14:13:11.760Z,21.80
2019-01-24T14:15:40.356Z,21.07
2019-01-24T14:18:09.026Z,18.43
2019-01-24T14:20:37.630Z,18.23
2019-01-24T14:23:06.224Z,22.20
2019-01-24T14:25:34.826Z,20.97
2019-01-24T14:28:03.438Z,20.40
2019-01-24T14:30:32.023Z,20.33
2019-01-24T14:33:00.616Z,20.57
2019-01-24T14:35:29.287Z,21.47
2019-01-24T14:37:57.972Z,19.30
2019-01-24T14:40:26.580Z,18.63
2019-01-24T14:42:55.195Z,21.50
2019-01-24T14:45:23.923Z,19.07
2019-01-24T14:47:52.511Z,22.40
2019-01-24T14:50:22.133Z,24.80
2019-01-24T14:52:50.895Z,21.40
2019-01-24T14:55:19.527Z,22.47
2019-01-24T14:57:48.164Z,18.70
2019-01-24T15:00:21.513Z,18.57
2019-01-24T15:02:50.125Z,19.63
2019-01-24T15:05:18.751Z,18.70
2019-01-24T15:07:47.703Z,22.00
2019-01-24T15:10:16.351Z,20.13
2019-01-24T15:12:44.967Z,20.23
2019-01-24T15:15:13.659Z,18.77
2019-01-24T15:17:42.262Z,15.87
2019-01-24T15:20:11.051Z,20.93
2019-01-24T15:22:39.667Z,22.60
2019-01-24T15:25:08.871Z,22.40
2019-01-24T15:27:37.615Z,21.37
2019-01-24T15:30:07.283Z,24.70
2019-01-24T15:32:36.558Z,25.87
2019-01-24T15:35:05.516Z,26.20
2019-01-24T15:37:34.115Z,31.90
2019-01-24T15:40:02.731Z,30.27
2019-01-24T15:42:31.373Z,25.57
2019-01-24T15:44:59.970Z,30.47
2019-01-24T15:47:28.563Z,29.87
2019-01-24T15:49:57.209Z,30.60
2019-01-24T15:52:25.796Z,29.40
2019-01-24T15:54:54.384Z,27.53
2019-01-24T15:57:23.027Z,33.80
2019-01-24T15:59:51.611Z,26.93
2019-01-24T16:02:20.203Z,31.10
2019-01-24T16:04:48.838Z,29.67
2019-01-24T16:07:17.439Z,32.40
2019-01-24T16:09:46.111Z,29.83
2019-01-24T16:12:14.749Z,28.73
2019-01-24T16:14:43.631Z,27.03
2019-01-24T16:17:12.214Z,26.90
2019-01-24T16:19:40.838Z,27.53
2019-01-24T16:22:09.420Z,30.07
2019-01-24T16:24:38.023Z,28.07
2019-01-24T16:27:06.622Z,27.13
2019-01-24T16:29:35.208Z,29.33
2019-01-24T16:32:03.925Z,24.33
2019-01-24T16:34:32.552Z,26.00
2019-01-24T16:37:01.148Z,25.97
2019-01-24T16:39:29.894Z,25.13
2019-01-24T16:41:58.516Z,24.70
2019-01-24T16:44:27.126Z,22.87
2019-01-24T16:46:55.710Z,21.93
2019-01-24T16:49:24.334Z,22.77
2019-01-24T16:51:52.942Z,22.63
2019-01-24T16:54:21.549Z,24.60
2019-01-24T16:56:50.180Z,22.63
2019-01-24T16:59:18.794Z,21.70
2019-01-24T17:01:47.399Z,24.30
2019-01-24T17:04:16.019Z,22.73
2019-01-24T17:06:44.603Z,19.73
2019-01-24T17:09:13.188Z,23.83
2019-01-24T17:11:41.830Z,20.90
2019-01-24T17:14:10.438Z,23.40
2019-01-24T17:16:39.242Z,22.50
2019-01-24T17:19:08.727Z,27.73
2019-01-24T17:21:37.352Z,22.43
2019-01-24T17:24:05.954Z,21.67
2019-01-24T17:26:34.566Z,21.40
2019-01-24T17:29:03.143Z,20.33
2019-01-24T17:31:31.809Z,21.13
2019-01-24T17:34:00.436Z,21.60
2019-01-24T17:36:29.028Z,19.70
2019-01-24T17:38:57.630Z,18.70
2019-01-24T17:41:26.240Z,20.33
2019-01-24T17:43:54.826Z,20.13
2019-01-24T17:46:23.434Z,22.33
2019-01-24T17:48:52.076Z,21.57
2019-01-24T17:51:20.671Z,18.33
2019-01-24T17:53:51.130Z,19.10
2019-01-24T17:56:19.728Z,19.93
2019-01-24T17:58:48.321Z,20.87
2019-01-24T18:01:18.290Z,20.00
2019-01-24T18:03:46.997Z,22.07
2019-01-24T18:06:15.619Z,22.40
2019-01-24T18:08:44.270Z,22.37
2019-01-24T18:11:12.892Z,18.60
2019-01-24T18:13:41.522Z,18.63
2019-01-24T18:16:10.118Z,19.57
2019-01-24T18:18:38.770Z,20.77
2019-01-24T18:21:07.664Z,19.20
2019-01-24T18:23:36.260Z,20.63
2019-01-24T18:26:06.015Z,19.17
2019-01-24T18:28:34.621Z,20.83
2019-01-24T18:31:03.373Z,16.77
2019-01-24T18:33:32.035Z,21.60
2019-01-24T18:36:00.637Z,19.10
2019-01-24T18:38:29.241Z,19.50
2019-01-24T18:40:57.887Z,23.83
2019-01-24T18:43:26.963Z,20.87
2019-01-24T18:45:56.974Z,20.87
2019-01-24T18:48:25.623Z,20.63
2019-01-24T18:50:54.243Z,21.50
2019-01-24T18:53:22.845Z,18.33
2019-01-24T18:55:51.465Z,21.40
2019-01-24T18:58:20.053Z,22.23
2019-01-24T19:00:48.659Z,18.67
2019-01-24T19:03:17.313Z,21.83
2019-01-24T19:05:46.114Z,24.20
2019-01-24T19:08:14.881Z,21.00
2019-01-24T19:10:43.481Z,21.77
2019-01-24T19:13:12.071Z,24.77
2019-01-24T19:15:44.643Z,23.50
2019-01-24T19:18:13.681Z,24.20
2019-01-24T19:20:42.284Z,25.27
2019-01-24T19:23:10.883Z,24.53
2019-01-24T19:25:39.734Z,23.23
2019-01-24T19:28:09.423Z,23.80
2019-01-24T19:30:38.006Z,22.37
2019-01-24T19:33:06.884Z,25.43
2019-01-24T19:35:35.534Z,26.17
2019-01-24T19:38:04.637Z,25.60
2019-01-24T19:40:33.500Z,24.70
2019-01-24T19:43:02.091Z,25.50
2019-01-24T19:45:30.669Z,24.60
2019-01-24T19:47:59.271Z,24.20
2019-01-24T19:50:28.111Z,25.20
2019-01-24T19:52:56.721Z,24.70
2019-01-24T19:55:25.331Z,26.57
2019-01-24T19:57:54.041Z,25.17
2019-01-24T20:00:23.849Z,25.80
2019-01-24T20:02:52.675Z,27.50
2019-01-24T20:05:21.378Z,23.83
2019-01-24T20:07:50.012Z,25.40
2019-01-24T20:10:19.540Z,27.03
2019-01-24T20:12:48.137Z,28.37
2019-01-24T20:15:20.626Z,29.73
2019-01-24T20:17:49.621Z,24.03
2019-01-24T20:20:18.608Z,26.47
2019-01-24T20:22:47.709Z,26.23
2019-01-24T20:25:17.170Z,28.10
2019-01-24T20:27:45.864Z,27.43
2019-01-24T20:30:18.709Z,24.43
2019-01-24T20:32:47.338Z,29.63
2019-01-24T20:35:17.410Z,28.77
2019-01-24T20:37:46.026Z,27.60
2019-01-24T20:40:14.856Z,28.93
2019-01-24T20:42:43.464Z,31.40
2019-01-24T20:45:12.229Z,28.77
2019-01-24T20:47:40.940Z,34.20
2019-01-24T20:50:10.110Z,29.40
2019-01-24T20:52:38.704Z,27.17
2019-01-24T20:55:07.822Z,30.00
2019-01-24T20:57:36.580Z,30.63
2019-01-24T21:00:07.005Z,33.10
2019-01-24T21:02:35.680Z,29.00
2019-01-24T21:05:04.566Z,29.77
2019-01-24T21:07:33.175Z,29.30
2019-01-24T21:10:01.912Z,28.67
2019-01-24T21:12:30.500Z,30.73
2019-01-24T21:14:59.076Z,28.83
2019-01-24T21:17:28.001Z,29.60
2019-01-24T21:19:56.598Z,27.73
2019-01-24T21:22:25.179Z,30.20
2019-01-24T21:24:54.024Z,32.47
2019-01-24T21:27:22.679Z,29.53
2019-01-24T21:29:51.288Z,31.03
2019-01-24T21:32:19.913Z,29.87
2019-01-24T21:34:48.568Z,29.10
2019-01-24T21:37:17.241Z,29.47
2019-01-24T21:39:45.886Z,31.13
2019-01-24T21:42:14.477Z,32.07
2019-01-24T21:44:43.058Z,31.07
2019-01-24T21:47:11.682Z,27.63
2019-01-24T21:49:40.273Z,27.47
2019-01-24T21:52:08.868Z,30.30
2019-01-24T21:54:37.511Z,28.43
2019-01-24T21:57:06.111Z,31.67
2019-01-24T21:59:34.717Z,30.27
2019-01-24T22:02:03.349Z,29.40
2019-01-24T22:04:32.076Z,29.30
2019-01-24T22:07:00.703Z,28.87
2019-01-24T22:09:29.406Z,31.93
2019-01-24T22:11:58.045Z,30.53
2019-01-24T22:14:26.633Z,30.07
2019-01-24T22:16:55.238Z,29.67
2019-01-24T22:19:23.811Z,31.17
2019-01-24T22:21:52.402Z,28.83
2019-01-24T22:24:21.012Z,28.20
2019-01-24T22:26:49.649Z,31.40
2019-01-24T22:29:18.302Z,31.30
2019-01-24T22:31:46.914Z,29.70
2019-01-24T22:34:15.530Z,30.27
2019-01-24T22:36:44.130Z,30.50
2019-01-24T22:39:12.746Z,28.70
2019-01-24T22:41:41.615Z,29.13
2019-01-24T22:44:10.223Z,29.57
2019-01-24T22:46:38.829Z,28.50
2019-01-24T22:49:07.429Z,28.53
2019-01-24T22:51:36.010Z,29.30
2019-01-24T22:54:04.909Z,29.70
2019-01-24T22:56:35.435Z,30.83
2019-01-24T22:59:03.868Z,34.17
2019-01-24T23:01:38.494Z,28.83
2019-01-24T23:04:09.120Z,29.20
2019-01-24T23:06:37.718Z,31.23
2019-01-24T23:09:08.394Z,27.37
2019-01-24T23:11:36.988Z,30.27
2019-01-24T23:14:05.736Z,30.17
2019-01-24T23:16:34.325Z,31.27
2019-01-24T23:19:02.902Z,31.07
2019-01-24T23:21:31.510Z,29.37
2019-01-24T23:24:00.145Z,28.67
2019-01-24T23:26:28.748Z,32.77
2019-01-24T23:28:57.983Z,27.13
2019-01-24T23:31:26.696Z,32.17
2019-01-24T23:33:55.286Z,30.57
2019-01-24T23:36:23.876Z,28.07
2019-01-24T23:38:52.488Z,28.97
2019-01-24T23:41:21.081Z,29.60
2019-01-24T23:43:49.788Z,28.63
2019-01-24T23:46:18.520Z,29.40
2019-01-24T23:48:47.109Z,28.83
2019-01-24T23:51:16.510Z,32.73
2019-01-24T23:53:45.116Z,26.87
2019-01-24T23:56:13.700Z,30.27
2019-01-24T23:58:42.282Z,27.40
